Alts del Alba, Puerto Rico
Current Conditions -  °F | °C
As of 11:50 AM on Monday 24 Nov 2014 (Local Time) from TJPS Reporting Station
Few Clouds Few Clouds  
Wind Chill: 32°   Ceiling: Unl
Heat Index: 37°   Visibility: 10mi
Dew Point: 23°   Wind: 9mph
Humidity: 59%   Direction: 160°SSE
Pressure: 29.99"   Gusts: NA
Location:  18.1304°N, 66.4926°W
Report Text: TJPS 241550Z 16008KT 10SM FEW030 32/23 A2999
Loading
Personal Weather Stations






























Interactive Weather Map New forecast layout! Learn more

10-Day Weather Forecast

Advertisements
Track Severe Weather on mobile